Ardmore, TN

12:34 PM CDT on May 25, 2015 (GMT -0500)
Elkton | | Change Station
CLOSE
Current Station
Personal Weather Station
Location: Prospect, TN
Elevation: 653 ft
Nearby Weather Stations

Elev 653 ft 35.04 °N, 86.92 °W | Updated 3 minutes ago

Overcast
Overcast
66.6 °F
Feels Like 66.6 °F
N
3.7
Wind Variable Wind from West

Today
High -- | Low -- °F
--% Chance of Precip.
Yesterday
High -- | Low -- °F
Precip. -- in
5:37 AM 7:51 PM
Waxing Crescent, 50% visible
Pressure 30.20 in
Visibility 10.0 miles
Clouds Overcast 2500 ft
Dew Point 66 °F
Humidity 99%
Rainfall 0.84 in
Snow Depth Not available.
UV 4 out of 12
Pollen 3.70 out of 12
Air Quality Not available.
Flu Activity Sporadic
METAR KMDQ 251715Z AUTO 15006KT 10SM -DZ OVC025 23/17 A3020 RMK AO2

More Conditions Fewer Conditions

Pressure 30.20 in
Visibility 10.0 miles
Clouds Overcast 2500 ft
Dew Point 66 °F
Humidity 99%
Rainfall 0.84 in
Snow Depth Not available.
UV 4 out of 12
Pollen 3.70 out of 12
Air Quality Not available.
Flu Activity Sporadic
METAR KMDQ 251715Z AUTO 15006KT 10SM -DZ OVC025 23/17 A3020 RMK AO2

More Conditions Fewer Conditions

10-Day Weather Forecast

Almanac

Astronomy

May. 25, 2015 Rise Set
Actual Time
Civil Twilight
Nautical Twilight
Astronomical Twilight
Moon
Length of Visible Light
Length of Day
Tomorrow will be .
, % of the Moon is Illuminated

Today's Extremes

State Highs State Lows

Community

WunderPhotos

Upload Photos

1,824,070 photos uploaded!

WunderBlogs® & News

Nearby

Air Quality

  Air Quality AQ Index Pollutant
Not available.

Snow Depth

Station Depth Elevation

Earthquake Activity

City Distance Mag. Time & Date
Minimum magnitude displayed is 2.5.

Coastal Water Temperatures

Place Temperature

Stations

Nearby Weather Stations

Station Location Temp. Windchill Dew Point Humidity Wind Precip. Elev Updated Type